sensor_id;sensor_type;location;lat;lon;timestamp;noise_LAeq;noise_LA_min;noise_LA_max;noise_LA01;noise_LA95
66399;Laerm;54877;51.504;3.894;2023-06-04T00:01:51;35.21;33.54;46.07;;
66399;Laerm;54877;51.504;3.894;2023-06-04T00:04:16;36.55;33.32;54.88;;
66399;Laerm;54877;51.504;3.894;2023-06-04T00:06:42;35.46;33.32;45.15;;
66399;Laerm;54877;51.504;3.894;2023-06-04T00:09:07;35.49;33.66;54.83;;
66399;Laerm;54877;51.504;3.894;2023-06-04T00:11:32;34.97;33.37;38.99;;
66399;Laerm;54877;51.504;3.894;2023-06-04T00:13:59;37.24;33.48;64.42;;
66399;Laerm;54877;51.504;3.894;2023-06-04T00:16:25;35.02;33.48;44.79;;
66399;Laerm;54877;51.504;3.894;2023-06-04T00:18:50;34.97;33.55;48.03;;
66399;Laerm;54877;51.504;3.894;2023-06-04T00:21:15;35.09;33.54;49.39;;
66399;Laerm;54877;51.504;3.894;2023-06-04T00:23:41;35.23;33.64;44.40;;
66399;Laerm;54877;51.504;3.894;2023-06-04T00:26:07;35.00;33.64;37.54;;
66399;Laerm;54877;51.504;3.894;2023-06-04T00:28:32;34.90;33.47;36.30;;
66399;Laerm;54877;51.504;3.894;2023-06-04T00:30:57;34.87;33.44;38.61;;
66399;Laerm;54877;51.504;3.894;2023-06-04T00:33:23;35.09;33.36;44.19;;
66399;Laerm;54877;51.504;3.894;2023-06-04T00:35:48;34.83;33.56;36.63;;
66399;Laerm;54877;51.504;3.894;2023-06-04T00:38:13;34.85;33.44;44.02;;
66399;Laerm;54877;51.504;3.894;2023-06-04T00:40:39;34.89;33.47;38.39;;
66399;Laerm;54877;51.504;3.894;2023-06-04T00:43:04;34.86;33.46;37.37;;
66399;Laerm;54877;51.504;3.894;2023-06-04T00:45:30;34.83;33.15;37.36;;
66399;Laerm;54877;51.504;3.894;2023-06-04T00:47:56;34.87;33.50;50.68;;
66399;Laerm;54877;51.504;3.894;2023-06-04T00:50:21;34.90;33.49;36.62;;
66399;Laerm;54877;51.504;3.894;2023-06-04T00:52:48;35.00;33.43;48.63;;
66399;Laerm;54877;51.504;3.894;2023-06-04T00:55:14;35.69;33.53;55.62;;
66399;Laerm;54877;51.504;3.894;2023-06-04T00:57:43;34.92;33.42;52.60;;
66399;Laerm;54877;51.504;3.894;2023-06-04T01:00:09;37.35;33.64;56.26;;
66399;Laerm;54877;51.504;3.894;2023-06-04T01:02:37;34.89;33.55;40.67;;
66399;Laerm;54877;51.504;3.894;2023-06-04T01:05:37;34.79;33.55;38.43;;
66399;Laerm;54877;51.504;3.894;2023-06-04T01:08:06;34.79;33.52;38.70;;
66399;Laerm;54877;51.504;3.894;2023-06-04T01:10:34;36.14;33.63;56.42;;
66399;Laerm;54877;51.504;3.894;2023-06-04T01:12:59;42.94;33.67;63.01;;
66399;Laerm;54877;51.504;3.894;2023-06-04T01:15:25;34.74;33.38;36.10;;
66399;Laerm;54877;51.504;3.894;2023-06-04T01:17:54;38.64;33.29;58.24;;
66399;Laerm;54877;51.504;3.894;2023-06-04T01:20:42;34.78;33.44;37.85;;
66399;Laerm;54877;51.504;3.894;2023-06-04T01:25:49;34.79;33.50;36.17;;
66399;Laerm;54877;51.504;3.894;2023-06-04T01:28:16;35.42;33.59;47.41;;
66399;Laerm;54877;51.504;3.894;2023-06-04T01:30:44;35.06;33.40;46.64;;
66399;Laerm;54877;51.504;3.894;2023-06-04T01:33:16;34.80;33.45;38.28;;
66399;Laerm;54877;51.504;3.894;2023-06-04T01:35:41;34.75;33.32;37.22;;
66399;Laerm;54877;51.504;3.894;2023-06-04T01:38:07;34.84;33.25;37.83;;
66399;Laerm;54877;51.504;3.894;2023-06-04T01:40:33;34.76;33.48;41.01;;
66399;Laerm;54877;51.504;3.894;2023-06-04T01:42:59;34.83;33.46;37.69;;
66399;Laerm;54877;51.504;3.894;2023-06-04T01:45:26;34.96;33.29;48.07;;
66399;Laerm;54877;51.504;3.894;2023-06-04T01:47:52;34.95;33.61;41.53;;
66399;Laerm;54877;51.504;3.894;2023-06-04T01:50:17;34.77;33.44;36.97;;
66399;Laerm;54877;51.504;3.894;2023-06-04T01:52:43;34.79;33.42;39.01;;
66399;Laerm;54877;51.504;3.894;2023-06-04T01:55:10;34.74;33.29;38.59;;
66399;Laerm;54877;51.504;3.894;2023-06-04T01:57:37;34.75;33.41;36.69;;
66399;Laerm;54877;51.504;3.894;2023-06-04T02:00:04;34.75;33.20;36.34;;
66399;Laerm;54877;51.504;3.894;2023-06-04T02:02:33;34.75;33.48;39.02;;
66399;Laerm;54877;51.504;3.894;2023-06-04T02:04:58;34.72;33.34;35.92;;
66399;Laerm;54877;51.504;3.894;2023-06-04T02:07:23;34.78;33.60;44.05;;
66399;Laerm;54877;51.504;3.894;2023-06-04T02:09:49;35.06;33.54;40.85;;
66399;Laerm;54877;51.504;3.894;2023-06-04T02:12:15;34.72;33.43;37.57;;
66399;Laerm;54877;51.504;3.894;2023-06-04T02:14:41;35.74;33.58;52.49;;
66399;Laerm;54877;51.504;3.894;2023-06-04T02:17:07;39.93;33.55;61.05;;
66399;Laerm;54877;51.504;3.894;2023-06-04T02:19:38;34.81;33.14;40.05;;
66399;Laerm;54877;51.504;3.894;2023-06-04T02:22:05;34.77;33.29;43.60;;
66399;Laerm;54877;51.504;3.894;2023-06-04T02:24:30;34.73;33.58;39.74;;
66399;Laerm;54877;51.504;3.894;2023-06-04T02:26:56;34.81;33.48;42.00;;
66399;Laerm;54877;51.504;3.894;2023-06-04T02:29:21;34.90;33.52;47.46;;
66399;Laerm;54877;51.504;3.894;2023-06-04T02:31:46;34.84;33.27;39.02;;
66399;Laerm;54877;51.504;3.894;2023-06-04T02:34:12;34.96;33.31;50.58;;
66399;Laerm;54877;51.504;3.894;2023-06-04T02:36:37;34.98;33.50;44.26;;
66399;Laerm;54877;51.504;3.894;2023-06-04T02:39:02;34.86;33.33;36.56;;
66399;Laerm;54877;51.504;3.894;2023-06-04T02:41:28;35.04;33.37;43.52;;
66399;Laerm;54877;51.504;3.894;2023-06-04T02:43:53;35.04;33.41;45.67;;
66399;Laerm;54877;51.504;3.894;2023-06-04T02:46:18;34.97;33.64;37.27;;
66399;Laerm;54877;51.504;3.894;2023-06-04T02:48:44;34.90;33.43;37.07;;
66399;Laerm;54877;51.504;3.894;2023-06-04T02:51:09;34.85;33.73;36.28;;
66399;Laerm;54877;51.504;3.894;2023-06-04T02:53:38;34.97;33.56;41.09;;
66399;Laerm;54877;51.504;3.894;2023-06-04T02:56:03;34.94;33.57;36.67;;
66399;Laerm;54877;51.504;3.894;2023-06-04T02:58:29;34.88;33.48;36.31;;
66399;Laerm;54877;51.504;3.894;2023-06-04T03:00:54;34.92;33.33;39.75;;
66399;Laerm;54877;51.504;3.894;2023-06-04T03:03:20;34.93;33.38;38.90;;
66399;Laerm;54877;51.504;3.894;2023-06-04T03:05:46;35.05;33.70;44.82;;
66399;Laerm;54877;51.504;3.894;2023-06-04T03:08:11;47.37;33.66;66.48;;
66399;Laerm;54877;51.504;3.894;2023-06-04T03:10:36;34.97;33.42;39.74;;
66399;Laerm;54877;51.504;3.894;2023-06-04T03:13:03;34.96;33.22;39.71;;
66399;Laerm;54877;51.504;3.894;2023-06-04T03:15:28;37.35;33.55;61.86;;
66399;Laerm;54877;51.504;3.894;2023-06-04T03:17:53;35.11;33.29;43.79;;
66399;Laerm;54877;51.504;3.894;2023-06-04T03:20:19;35.04;33.41;40.52;;
66399;Laerm;54877;51.504;3.894;2023-06-04T03:22:44;35.08;33.34;40.13;;
66399;Laerm;54877;51.504;3.894;2023-06-04T03:25:09;35.08;33.51;45.58;;
66399;Laerm;54877;51.504;3.894;2023-06-04T03:27:35;34.93;33.45;37.77;;
66399;Laerm;54877;51.504;3.894;2023-06-04T03:30:01;34.88;33.36;37.25;;
66399;Laerm;54877;51.504;3.894;2023-06-04T03:32:26;34.91;33.33;43.93;;
66399;Laerm;54877;51.504;3.894;2023-06-04T03:34:52;34.84;33.34;41.86;;
66399;Laerm;54877;51.504;3.894;2023-06-04T03:37:17;34.87;33.62;37.70;;
66399;Laerm;54877;51.504;3.894;2023-06-04T03:39:43;34.94;33.59;47.29;;
66399;Laerm;54877;51.504;3.894;2023-06-04T03:42:08;34.94;33.33;37.63;;
66399;Laerm;54877;51.504;3.894;2023-06-04T03:44:34;35.33;33.67;48.12;;
66399;Laerm;54877;51.504;3.894;2023-06-04T03:46:59;35.44;33.62;52.41;;
66399;Laerm;54877;51.504;3.894;2023-06-04T03:49:25;35.00;33.52;39.83;;
66399;Laerm;54877;51.504;3.894;2023-06-04T03:51:50;34.92;33.30;38.76;;
66399;Laerm;54877;51.504;3.894;2023-06-04T03:54:16;47.85;33.62;67.81;;
66399;Laerm;54877;51.504;3.894;2023-06-04T03:56:45;36.87;33.45;52.61;;
66399;Laerm;54877;51.504;3.894;2023-06-04T03:59:12;34.92;33.38;41.94;;
66399;Laerm;54877;51.504;3.894;2023-06-04T04:01:37;35.39;33.35;48.35;;
66399;Laerm;54877;51.504;3.894;2023-06-04T04:04:04;35.01;33.54;46.49;;
66399;Laerm;54877;51.504;3.894;2023-06-04T04:06:30;36.00;33.56;45.68;;
66399;Laerm;54877;51.504;3.894;2023-06-04T04:08:55;34.80;33.46;36.89;;
66399;Laerm;54877;51.504;3.894;2023-06-04T04:11:20;34.98;33.33;44.34;;
66399;Laerm;54877;51.504;3.894;2023-06-04T04:13:48;34.94;33.56;43.60;;
66399;Laerm;54877;51.504;3.894;2023-06-04T04:16:13;43.91;33.56;63.71;;
66399;Laerm;54877;51.504;3.894;2023-06-04T04:18:41;34.91;33.35;37.34;;
66399;Laerm;54877;51.504;3.894;2023-06-04T04:21:08;34.81;33.15;40.86;;
66399;Laerm;54877;51.504;3.894;2023-06-04T04:23:34;34.82;33.30;37.25;;
66399;Laerm;54877;51.504;3.894;2023-06-04T04:25:59;34.96;33.34;44.34;;
66399;Laerm;54877;51.504;3.894;2023-06-04T04:28:28;34.94;33.32;43.15;;
66399;Laerm;54877;51.504;3.894;2023-06-04T04:30:57;34.84;33.45;37.10;;
66399;Laerm;54877;51.504;3.894;2023-06-04T04:33:25;35.05;33.51;45.21;;
66399;Laerm;54877;51.504;3.894;2023-06-04T04:35:51;37.01;33.49;50.57;;
66399;Laerm;54877;51.504;3.894;2023-06-04T04:38:18;35.21;33.52;43.16;;
66399;Laerm;54877;51.504;3.894;2023-06-04T04:40:44;34.93;33.29;38.96;;
66399;Laerm;54877;51.504;3.894;2023-06-04T04:43:12;35.20;33.62;49.61;;
66399;Laerm;54877;51.504;3.894;2023-06-04T04:45:37;35.06;33.52;46.93;;
66399;Laerm;54877;51.504;3.894;2023-06-04T04:48:03;35.68;33.69;43.03;;
66399;Laerm;54877;51.504;3.894;2023-06-04T04:50:28;35.63;33.93;47.41;;
66399;Laerm;54877;51.504;3.894;2023-06-04T04:52:53;36.17;33.93;49.39;;
66399;Laerm;54877;51.504;3.894;2023-06-04T04:55:18;35.75;33.81;52.59;;
66399;Laerm;54877;51.504;3.894;2023-06-04T04:57:44;35.39;33.93;47.24;;
66399;Laerm;54877;51.504;3.894;2023-06-04T05:00:10;35.48;33.61;41.01;;
66399;Laerm;54877;51.504;3.894;2023-06-04T05:02:35;36.91;33.89;46.50;;
66399;Laerm;54877;51.504;3.894;2023-06-04T05:05:01;35.94;33.84;48.30;;
66399;Laerm;54877;51.504;3.894;2023-06-04T05:07:27;35.44;33.93;46.30;;
66399;Laerm;54877;51.504;3.894;2023-06-04T05:09:52;35.44;34.10;41.10;;
66399;Laerm;54877;51.504;3.894;2023-06-04T05:12:17;35.88;34.23;47.21;;
66399;Laerm;54877;51.504;3.894;2023-06-04T05:14:43;35.63;33.80;44.78;;
66399;Laerm;54877;51.504;3.894;2023-06-04T05:17:09;35.74;34.08;44.32;;
66399;Laerm;54877;51.504;3.894;2023-06-04T05:19:36;36.62;34.18;47.62;;
66399;Laerm;54877;51.504;3.894;2023-06-04T05:22:02;35.50;34.10;44.93;;
66399;Laerm;54877;51.504;3.894;2023-06-04T05:24:28;36.12;34.19;47.24;;
66399;Laerm;54877;51.504;3.894;2023-06-04T05:26:54;35.72;34.11;45.13;;
66399;Laerm;54877;51.504;3.894;2023-06-04T05:29:20;35.61;33.76;44.42;;
66399;Laerm;54877;51.504;3.894;2023-06-04T05:31:45;35.58;34.24;49.10;;
66399;Laerm;54877;51.504;3.894;2023-06-04T05:34:11;36.38;33.97;46.69;;
66399;Laerm;54877;51.504;3.894;2023-06-04T05:36:42;51.64;34.02;70.85;;
66399;Laerm;54877;51.504;3.894;2023-06-04T05:39:07;35.55;33.97;48.43;;
66399;Laerm;54877;51.504;3.894;2023-06-04T05:41:34;35.63;34.27;48.53;;
66399;Laerm;54877;51.504;3.894;2023-06-04T05:43:59;35.72;34.31;46.15;;
66399;Laerm;54877;51.504;3.894;2023-06-04T05:46:24;35.97;34.03;47.85;;
66399;Laerm;54877;51.504;3.894;2023-06-04T05:48:50;35.53;33.98;39.50;;
66399;Laerm;54877;51.504;3.894;2023-06-04T05:51:16;35.58;34.23;40.87;;
66399;Laerm;54877;51.504;3.894;2023-06-04T05:53:41;35.83;33.95;49.73;;
66399;Laerm;54877;51.504;3.894;2023-06-04T05:56:07;35.93;34.01;45.27;;
66399;Laerm;54877;51.504;3.894;2023-06-04T05:58:33;35.74;34.14;47.31;;
66399;Laerm;54877;51.504;3.894;2023-06-04T06:00:59;39.57;34.20;61.25;;
66399;Laerm;54877;51.504;3.894;2023-06-04T06:03:25;35.91;34.09;49.76;;
66399;Laerm;54877;51.504;3.894;2023-06-04T06:05:52;35.87;34.15;49.35;;
66399;Laerm;54877;51.504;3.894;2023-06-04T06:08:18;36.19;34.17;53.64;;
66399;Laerm;54877;51.504;3.894;2023-06-04T06:10:43;35.82;34.20;49.23;;
66399;Laerm;54877;51.504;3.894;2023-06-04T06:13:08;35.81;34.05;45.48;;
66399;Laerm;54877;51.504;3.894;2023-06-04T06:15:34;35.60;34.11;44.03;;
66399;Laerm;54877;51.504;3.894;2023-06-04T06:17:59;35.78;34.16;53.63;;
66399;Laerm;54877;51.504;3.894;2023-06-04T06:20:25;35.56;33.96;44.52;;
66399;Laerm;54877;51.504;3.894;2023-06-04T06:22:50;35.65;33.93;46.57;;
66399;Laerm;54877;51.504;3.894;2023-06-04T06:25:16;36.16;33.95;50.98;;
66399;Laerm;54877;51.504;3.894;2023-06-04T06:27:42;36.44;34.18;52.09;;
66399;Laerm;54877;51.504;3.894;2023-06-04T06:30:08;36.05;34.29;49.38;;
66399;Laerm;54877;51.504;3.894;2023-06-04T06:32:34;36.62;34.22;52.32;;
66399;Laerm;54877;51.504;3.894;2023-06-04T06:35:00;36.06;34.27;49.37;;
66399;Laerm;54877;51.504;3.894;2023-06-04T06:37:25;35.75;33.81;45.77;;
66399;Laerm;54877;51.504;3.894;2023-06-04T06:39:51;35.73;34.04;47.23;;
66399;Laerm;54877;51.504;3.894;2023-06-04T06:42:16;35.60;34.10;42.96;;
66399;Laerm;54877;51.504;3.894;2023-06-04T06:44:45;35.65;34.09;41.06;;
66399;Laerm;54877;51.504;3.894;2023-06-04T06:47:10;35.80;34.00;41.03;;
66399;Laerm;54877;51.504;3.894;2023-06-04T06:49:39;35.81;34.05;42.17;;
66399;Laerm;54877;51.504;3.894;2023-06-04T06:52:04;36.21;34.01;52.47;;
66399;Laerm;54877;51.504;3.894;2023-06-04T06:54:30;52.37;34.18;70.92;;
66399;Laerm;54877;51.504;3.894;2023-06-04T06:56:55;38.45;34.17;56.31;;
66399;Laerm;54877;51.504;3.894;2023-06-04T06:59:20;35.74;34.02;47.55;;
66399;Laerm;54877;51.504;3.894;2023-06-04T07:01:46;36.16;34.23;53.28;;
66399;Laerm;54877;51.504;3.894;2023-06-04T07:04:12;35.84;33.94;50.80;;
66399;Laerm;54877;51.504;3.894;2023-06-04T07:06:38;49.67;34.03;69.36;;
66399;Laerm;54877;51.504;3.894;2023-06-04T07:09:03;40.70;34.21;54.27;;
66399;Laerm;54877;51.504;3.894;2023-06-04T07:11:30;39.02;34.10;55.91;;
66399;Laerm;54877;51.504;3.894;2023-06-04T07:13:56;39.13;34.71;52.08;;
66399;Laerm;54877;51.504;3.894;2023-06-04T07:16:21;39.14;34.24;53.10;;
66399;Laerm;54877;51.504;3.894;2023-06-04T07:18:47;35.91;34.18;49.83;;
66399;Laerm;54877;51.504;3.894;2023-06-04T07:21:13;35.42;34.17;39.94;;
66399;Laerm;54877;51.504;3.894;2023-06-04T07:23:38;43.59;34.02;62.66;;
66399;Laerm;54877;51.504;3.894;2023-06-04T07:26:04;38.20;34.29;64.36;;
66399;Laerm;54877;51.504;3.894;2023-06-04T07:28:29;37.09;34.39;46.53;;
66399;Laerm;54877;51.504;3.894;2023-06-04T07:30:54;43.97;34.30;62.53;;
66399;Laerm;54877;51.504;3.894;2023-06-04T07:33:20;35.68;33.93;51.22;;
66399;Laerm;54877;51.504;3.894;2023-06-04T07:35:45;35.68;34.13;48.24;;
66399;Laerm;54877;51.504;3.894;2023-06-04T07:38:10;43.48;34.03;60.28;;
66399;Laerm;54877;51.504;3.894;2023-06-04T07:40:36;35.62;34.19;45.20;;
66399;Laerm;54877;51.504;3.894;2023-06-04T07:43:01;46.71;34.00;61.40;;
66399;Laerm;54877;51.504;3.894;2023-06-04T07:45:26;46.37;36.39;59.10;;
66399;Laerm;54877;51.504;3.894;2023-06-04T07:47:54;48.41;35.90;62.72;;
66399;Laerm;54877;51.504;3.894;2023-06-04T07:50:19;42.78;35.62;54.47;;
66399;Laerm;54877;51.504;3.894;2023-06-04T07:52:44;42.28;35.94;54.35;;
66399;Laerm;54877;51.504;3.894;2023-06-04T07:55:10;42.87;35.92;53.68;;
66399;Laerm;54877;51.504;3.894;2023-06-04T07:57:35;40.77;34.43;53.81;;
66399;Laerm;54877;51.504;3.894;2023-06-04T08:00:01;49.86;34.12;69.35;;
66399;Laerm;54877;51.504;3.894;2023-06-04T08:02:29;40.39;34.12;57.46;;
66399;Laerm;54877;51.504;3.894;2023-06-04T08:04:54;36.25;34.11;50.81;;
66399;Laerm;54877;51.504;3.894;2023-06-04T08:07:20;41.07;34.47;50.14;;
66399;Laerm;54877;51.504;3.894;2023-06-04T08:09:45;47.23;34.17;69.13;;
66399;Laerm;54877;51.504;3.894;2023-06-04T08:12:10;36.07;34.20;49.03;;
66399;Laerm;54877;51.504;3.894;2023-06-04T08:14:36;50.69;34.27;67.96;;
66399;Laerm;54877;51.504;3.894;2023-06-04T08:17:01;36.98;33.72;53.33;;
66399;Laerm;54877;51.504;3.894;2023-06-04T08:19:27;35.88;34.17;49.35;;
66399;Laerm;54877;51.504;3.894;2023-06-04T08:21:53;36.15;34.13;48.26;;
66399;Laerm;54877;51.504;3.894;2023-06-04T08:24:18;36.86;34.15;51.25;;
66399;Laerm;54877;51.504;3.894;2023-06-04T08:26:43;37.04;34.16;61.03;;
66399;Laerm;54877;51.504;3.894;2023-06-04T08:29:08;35.79;33.92;47.89;;
66399;Laerm;54877;51.504;3.894;2023-06-04T08:31:34;47.75;34.23;67.22;;
66399;Laerm;54877;51.504;3.894;2023-06-04T08:33:59;36.68;34.15;47.38;;
66399;Laerm;54877;51.504;3.894;2023-06-04T08:36:26;45.24;33.98;64.36;;
66399;Laerm;54877;51.504;3.894;2023-06-04T08:38:52;45.10;34.14;63.41;;
66399;Laerm;54877;51.504;3.894;2023-06-04T08:43:51;47.26;34.08;65.01;;
66399;Laerm;54877;51.504;3.894;2023-06-04T08:46:19;36.26;34.39;48.80;;
66399;Laerm;54877;51.504;3.894;2023-06-04T08:48:45;43.85;34.83;61.62;;
66399;Laerm;54877;51.504;3.894;2023-06-04T08:51:11;41.17;34.52;59.16;;
66399;Laerm;54877;51.504;3.894;2023-06-04T08:53:37;36.73;34.27;57.84;;
66399;Laerm;54877;51.504;3.894;2023-06-04T08:56:03;38.31;34.43;57.13;;
66399;Laerm;54877;51.504;3.894;2023-06-04T08:58:32;47.40;34.61;67.12;;
66399;Laerm;54877;51.504;3.894;2023-06-04T09:01:00;41.93;34.54;71.97;;
66399;Laerm;54877;51.504;3.894;2023-06-04T09:03:27;38.59;34.54;55.41;;
66399;Laerm;54877;51.504;3.894;2023-06-04T09:05:54;53.84;34.65;71.55;;
66399;Laerm;54877;51.504;3.894;2023-06-04T09:08:21;40.96;34.66;67.12;;
66399;Laerm;54877;51.504;3.894;2023-06-04T09:10:49;42.20;34.75;58.06;;
66399;Laerm;54877;51.504;3.894;2023-06-04T09:13:18;48.89;34.56;69.74;;
66399;Laerm;54877;51.504;3.894;2023-06-04T09:15:44;46.25;34.44;63.82;;
66399;Laerm;54877;51.504;3.894;2023-06-04T09:18:11;36.37;34.24;47.36;;
66399;Laerm;54877;51.504;3.894;2023-06-04T09:20:37;44.52;34.37;59.92;;
66399;Laerm;54877;51.504;3.894;2023-06-04T09:23:12;49.66;34.50;69.41;;
66399;Laerm;54877;51.504;3.894;2023-06-04T09:25:42;50.71;34.66;68.06;;
66399;Laerm;54877;51.504;3.894;2023-06-04T09:28:07;50.19;34.63;70.18;;
66399;Laerm;54877;51.504;3.894;2023-06-04T09:30:32;36.16;34.40;50.00;;
66399;Laerm;54877;51.504;3.894;2023-06-04T09:33:08;40.65;34.34;61.53;;
66399;Laerm;54877;51.504;3.894;2023-06-04T09:35:34;50.16;34.31;70.52;;
66399;Laerm;54877;51.504;3.894;2023-06-04T09:37:59;37.71;34.61;63.81;;
66399;Laerm;54877;51.504;3.894;2023-06-04T09:40:34;45.19;34.41;64.85;;
66399;Laerm;54877;51.504;3.894;2023-06-04T09:42:59;53.52;34.56;77.69;;
66399;Laerm;54877;51.504;3.894;2023-06-04T09:45:34;41.82;34.53;58.68;;
66399;Laerm;54877;51.504;3.894;2023-06-04T09:48:01;45.69;34.59;65.89;;
66399;Laerm;54877;51.504;3.894;2023-06-04T09:50:32;41.03;34.84;57.30;;
66399;Laerm;54877;51.504;3.894;2023-06-04T09:52:59;48.21;34.63;66.94;;
66399;Laerm;54877;51.504;3.894;2023-06-04T09:55:25;40.66;34.79;61.24;;
66399;Laerm;54877;51.504;3.894;2023-06-04T09:57:51;38.99;34.63;55.51;;
66399;Laerm;54877;51.504;3.894;2023-06-04T10:00:18;36.60;34.54;53.80;;
66399;Laerm;54877;51.504;3.894;2023-06-04T10:02:44;45.24;34.64;65.19;;
66399;Laerm;54877;51.504;3.894;2023-06-04T10:05:11;37.65;34.75;50.74;;
66399;Laerm;54877;51.504;3.894;2023-06-04T10:07:42;38.04;34.23;53.02;;
66399;Laerm;54877;51.504;3.894;2023-06-04T10:10:12;36.54;34.55;47.01;;
66399;Laerm;54877;51.504;3.894;2023-06-04T10:12:39;46.42;34.60;65.05;;
66399;Laerm;54877;51.504;3.894;2023-06-04T10:15:10;36.38;34.54;50.35;;
66399;Laerm;54877;51.504;3.894;2023-06-04T10:17:37;37.22;34.52;50.82;;
66399;Laerm;54877;51.504;3.894;2023-06-04T10:20:02;38.96;34.33;56.20;;
66399;Laerm;54877;51.504;3.894;2023-06-04T10:22:35;38.56;34.62;52.57;;
66399;Laerm;54877;51.504;3.894;2023-06-04T10:25:01;50.79;34.57;71.04;;
66399;Laerm;54877;51.504;3.894;2023-06-04T10:27:27;54.21;34.84;67.18;;
66399;Laerm;54877;51.504;3.894;2023-06-04T10:29:55;38.03;34.73;53.53;;
66399;Laerm;54877;51.504;3.894;2023-06-04T10:32:20;49.05;34.68;66.70;;
66399;Laerm;54877;51.504;3.894;2023-06-04T10:34:46;49.53;34.77;70.84;;
66399;Laerm;54877;51.504;3.894;2023-06-04T10:37:25;42.18;34.73;58.44;;
66399;Laerm;54877;51.504;3.894;2023-06-04T10:39:53;42.49;34.44;67.80;;
66399;Laerm;54877;51.504;3.894;2023-06-04T10:42:19;45.76;35.01;62.83;;
66399;Laerm;54877;51.504;3.894;2023-06-04T10:44:47;49.73;34.63;67.68;;
66399;Laerm;54877;51.504;3.894;2023-06-04T10:47:20;44.91;34.88;67.79;;
66399;Laerm;54877;51.504;3.894;2023-06-04T10:49:47;40.23;34.85;56.16;;
66399;Laerm;54877;51.504;3.894;2023-06-04T10:52:12;47.41;34.63;67.43;;
66399;Laerm;54877;51.504;3.894;2023-06-04T10:54:38;42.43;34.79;60.99;;
66399;Laerm;54877;51.504;3.894;2023-06-04T10:57:16;38.43;34.57;60.52;;
66399;Laerm;54877;51.504;3.894;2023-06-04T10:59:56;37.11;34.50;51.86;;
66399;Laerm;54877;51.504;3.894;2023-06-04T11:02:21;46.79;34.83;64.98;;
66399;Laerm;54877;51.504;3.894;2023-06-04T11:04:47;49.52;34.56;68.23;;
66399;Laerm;54877;51.504;3.894;2023-06-04T11:07:12;37.80;34.53;51.61;;
66399;Laerm;54877;51.504;3.894;2023-06-04T11:09:47;49.68;34.60;68.23;;
66399;Laerm;54877;51.504;3.894;2023-06-04T11:12:13;38.60;34.84;55.41;;
66399;Laerm;54877;51.504;3.894;2023-06-04T11:14:38;43.34;34.71;55.02;;
66399;Laerm;54877;51.504;3.894;2023-06-04T11:17:11;39.06;34.83;52.76;;
66399;Laerm;54877;51.504;3.894;2023-06-04T11:19:38;37.27;34.68;52.33;;
66399;Laerm;54877;51.504;3.894;2023-06-04T11:22:04;37.39;34.67;49.78;;
66399;Laerm;54877;51.504;3.894;2023-06-04T11:24:30;38.68;34.60;54.82;;
66399;Laerm;54877;51.504;3.894;2023-06-04T11:26:57;48.81;34.78;66.76;;
66399;Laerm;54877;51.504;3.894;2023-06-04T11:29:25;50.94;34.75;68.47;;
66399;Laerm;54877;51.504;3.894;2023-06-04T11:31:50;48.75;34.53;66.87;;
66399;Laerm;54877;51.504;3.894;2023-06-04T11:34:28;53.79;35.06;69.96;;
66399;Laerm;54877;51.504;3.894;2023-06-04T11:36:54;49.28;34.81;67.63;;
66399;Laerm;54877;51.504;3.894;2023-06-04T11:39:20;50.73;35.11;70.88;;
66399;Laerm;54877;51.504;3.894;2023-06-04T11:41:47;53.39;35.11;71.92;;
66399;Laerm;54877;51.504;3.894;2023-06-04T11:44:13;51.63;35.85;68.33;;
66399;Laerm;54877;51.504;3.894;2023-06-04T11:46:42;44.77;34.94;68.56;;
66399;Laerm;54877;51.504;3.894;2023-06-04T11:49:17;48.16;35.04;65.99;;
66399;Laerm;54877;51.504;3.894;2023-06-04T11:51:50;39.16;34.77;54.36;;
66399;Laerm;54877;51.504;3.894;2023-06-04T11:54:17;40.09;34.67;55.90;;
66399;Laerm;54877;51.504;3.894;2023-06-04T11:56:43;41.76;34.82;55.41;;
66399;Laerm;54877;51.504;3.894;2023-06-04T11:59:13;39.75;34.75;59.33;;
66399;Laerm;54877;51.504;3.894;2023-06-04T12:01:40;46.39;34.97;65.69;;
66399;Laerm;54877;51.504;3.894;2023-06-04T12:04:13;39.81;34.78;62.94;;
66399;Laerm;54877;51.504;3.894;2023-06-04T12:06:54;40.49;34.85;55.13;;
66399;Laerm;54877;51.504;3.894;2023-06-04T12:09:28;38.51;34.47;54.58;;
66399;Laerm;54877;51.504;3.894;2023-06-04T12:12:02;37.96;34.64;56.88;;
66399;Laerm;54877;51.504;3.894;2023-06-04T12:14:28;40.25;34.83;57.06;;
66399;Laerm;54877;51.504;3.894;2023-06-04T12:17:00;44.16;34.88;63.47;;
66399;Laerm;54877;51.504;3.894;2023-06-04T12:19:27;45.78;34.60;63.16;;
66399;Laerm;54877;51.504;3.894;2023-06-04T12:22:06;37.75;34.60;57.09;;
66399;Laerm;54877;51.504;3.894;2023-06-04T12:24:33;38.91;34.69;57.43;;
66399;Laerm;54877;51.504;3.894;2023-06-04T12:27:07;38.56;34.73;57.07;;
66399;Laerm;54877;51.504;3.894;2023-06-04T12:29:33;42.77;34.83;61.84;;
66399;Laerm;54877;51.504;3.894;2023-06-04T12:32:07;45.38;35.08;65.31;;
66399;Laerm;54877;51.504;3.894;2023-06-04T12:34:36;41.32;35.04;61.76;;
66399;Laerm;54877;51.504;3.894;2023-06-04T12:37:02;44.64;34.80;61.92;;
66399;Laerm;54877;51.504;3.894;2023-06-04T12:39:32;48.55;35.13;69.56;;
66399;Laerm;54877;51.504;3.894;2023-06-04T12:41:57;49.89;35.05;69.05;;
66399;Laerm;54877;51.504;3.894;2023-06-04T12:44:23;39.08;35.05;54.92;;
66399;Laerm;54877;51.504;3.894;2023-06-04T12:46:49;48.11;34.61;66.62;;
66399;Laerm;54877;51.504;3.894;2023-06-04T12:49:15;50.22;34.65;67.49;;
66399;Laerm;54877;51.504;3.894;2023-06-04T12:51:40;42.33;34.69;56.29;;
66399;Laerm;54877;51.504;3.894;2023-06-04T12:54:06;41.02;34.56;66.09;;
66399;Laerm;54877;51.504;3.894;2023-06-04T12:56:32;49.53;34.51;67.58;;
66399;Laerm;54877;51.504;3.894;2023-06-04T12:58:57;45.69;34.97;63.56;;
66399;Laerm;54877;51.504;3.894;2023-06-04T13:01:22;37.08;34.70;52.04;;
66399;Laerm;54877;51.504;3.894;2023-06-04T13:03:48;37.70;34.58;56.12;;
66399;Laerm;54877;51.504;3.894;2023-06-04T13:06:13;59.65;34.98;81.11;;
66399;Laerm;54877;51.504;3.894;2023-06-04T13:08:38;37.05;34.55;46.90;;
66399;Laerm;54877;51.504;3.894;2023-06-04T13:11:04;42.12;35.10;59.65;;
66399;Laerm;54877;51.504;3.894;2023-06-04T13:13:30;52.77;35.47;70.22;;
66399;Laerm;54877;51.504;3.894;2023-06-04T13:15:56;45.89;34.76;62.55;;
66399;Laerm;54877;51.504;3.894;2023-06-04T13:18:21;37.61;34.95;54.20;;
66399;Laerm;54877;51.504;3.894;2023-06-04T13:20:47;39.78;34.93;61.09;;
66399;Laerm;54877;51.504;3.894;2023-06-04T13:23:14;46.19;34.87;63.35;;
66399;Laerm;54877;51.504;3.894;2023-06-04T13:25:39;45.71;34.67;64.06;;
66399;Laerm;54877;51.504;3.894;2023-06-04T13:28:05;50.80;35.36;66.93;;
66399;Laerm;54877;51.504;3.894;2023-06-04T13:30:31;39.86;35.28;49.94;;
66399;Laerm;54877;51.504;3.894;2023-06-04T13:32:56;46.78;35.31;64.74;;
66399;Laerm;54877;51.504;3.894;2023-06-04T13:35:23;36.83;34.68;56.27;;
66399;Laerm;54877;51.504;3.894;2023-06-04T13:37:49;46.99;34.90;74.02;;
66399;Laerm;54877;51.504;3.894;2023-06-04T13:40:15;40.60;34.82;62.43;;
66399;Laerm;54877;51.504;3.894;2023-06-04T13:42:40;40.98;34.84;64.67;;
66399;Laerm;54877;51.504;3.894;2023-06-04T13:45:08;37.80;34.84;54.93;;
66399;Laerm;54877;51.504;3.894;2023-06-04T13:47:33;38.06;34.89;54.56;;